createdAt,value
2022-10-08T00:03:54.679Z,11.3
2022-10-08T00:08:54.439Z,11.5
2022-10-08T00:13:53.659Z,11.5
2022-10-08T00:18:54.190Z,11.6
2022-10-08T00:23:53.691Z,11.6
2022-10-08T00:28:54.204Z,11.4
2022-10-08T00:33:53.730Z,11.4
2022-10-08T00:38:54.205Z,11.3
2022-10-08T00:43:53.640Z,11.3
2022-10-08T00:48:53.330Z,11.3
2022-10-08T00:53:53.743Z,11.3
2022-10-08T00:58:53.278Z,11.3
2022-10-08T01:03:54.012Z,11.3
2022-10-08T01:08:54.197Z,11.1
2022-10-08T01:13:53.474Z,11.1
2022-10-08T01:18:53.728Z,10.9
2022-10-08T01:23:53.243Z,10.9
2022-10-08T01:28:54.051Z,10.8
2022-10-08T01:33:53.411Z,10.8
2022-10-08T01:38:53.891Z,10.8
2022-10-08T01:43:53.393Z,10.8
2022-10-08T01:48:53.943Z,10.8
2022-10-08T01:53:53.748Z,10.8
2022-10-08T01:58:53.332Z,10.8
2022-10-08T02:03:53.900Z,10.8
2022-10-08T02:08:53.437Z,10.8
2022-10-08T02:13:53.969Z,10.8
2022-10-08T02:18:53.289Z,11.1
2022-10-08T02:23:53.681Z,11.1
2022-10-08T02:28:54.146Z,11.3
2022-10-08T02:33:53.649Z,11.3
2022-10-08T02:38:54.266Z,11.3
2022-10-08T02:43:53.266Z,11.3
2022-10-08T02:48:53.668Z,11.3
2022-10-08T02:53:53.841Z,11.3
2022-10-08T02:58:53.754Z,11.4
2022-10-08T03:03:53.771Z,11.4
2022-10-08T03:08:53.304Z,11.4
2022-10-08T03:13:54.141Z,11.4
2022-10-08T03:18:54.212Z,11.4
2022-10-08T03:23:54.207Z,11.4
2022-10-08T03:28:53.692Z,11.5
2022-10-08T03:33:53.560Z,11.5
2022-10-08T03:38:54.247Z,11.5
2022-10-08T03:43:54.073Z,11.5
2022-10-08T03:48:53.975Z,11.6
2022-10-08T03:53:53.939Z,11.6
2022-10-08T03:58:54.155Z,11.6
2022-10-08T04:03:54.293Z,11.6
2022-10-08T04:08:53.409Z,11.5
2022-10-08T04:13:54.178Z,11.5
2022-10-08T04:18:53.705Z,11.4
2022-10-08T04:23:54.230Z,11.4
2022-10-08T04:28:53.786Z,11.4
2022-10-08T04:33:53.945Z,11.4
2022-10-08T04:38:53.883Z,11.5
2022-10-08T04:43:53.369Z,11.5
2022-10-08T04:48:54.026Z,11.5
2022-10-08T04:53:54.336Z,11.5
2022-10-08T04:58:53.625Z,11.5
2022-10-08T05:03:53.979Z,11.5
2022-10-08T05:08:53.709Z,11.4
2022-10-08T05:13:53.528Z,11.4
2022-10-08T05:18:53.912Z,11.4
2022-10-08T05:23:54.044Z,11.4
2022-10-08T05:28:53.596Z,11.3
2022-10-08T05:33:53.386Z,11.3
2022-10-08T05:38:53.911Z,11.4
2022-10-08T05:43:53.321Z,11.4
2022-10-08T05:48:53.743Z,11.3
2022-10-08T05:53:54.092Z,11.3
2022-10-08T05:58:53.677Z,11.2
2022-10-08T06:03:54.142Z,11.2
2022-10-08T06:08:53.594Z,11.1
2022-10-08T06:13:53.914Z,11.1
2022-10-08T06:18:54.349Z,11.1
2022-10-08T06:23:54.185Z,11.1
2022-10-08T06:28:53.391Z,11.2
2022-10-08T06:33:53.822Z,11.2
2022-10-08T06:38:53.510Z,11.2
2022-10-08T06:43:53.885Z,11.2
2022-10-08T06:48:54.072Z,11.4
2022-10-08T06:53:54.408Z,11.4
2022-10-08T06:58:53.830Z,11.4
2022-10-08T07:03:53.430Z,11.4
2022-10-08T07:08:54.005Z,11.7
2022-10-08T07:13:53.658Z,11.7
2022-10-08T07:18:54.205Z,12.1
2022-10-08T07:23:53.604Z,12.1
2022-10-08T07:28:54.075Z,12.4
2022-10-08T07:33:54.508Z,12.4
2022-10-08T07:38:53.935Z,12.6
2022-10-08T07:43:54.675Z,12.6
2022-10-08T07:48:54.220Z,12.8
2022-10-08T07:53:53.709Z,12.8
2022-10-08T07:58:54.179Z,13
2022-10-08T08:03:53.634Z,13
2022-10-08T08:08:53.967Z,13.2
2022-10-08T08:13:54.354Z,13.2
2022-10-08T08:18:53.650Z,13.2
2022-10-08T08:23:54.146Z,13.2
2022-10-08T08:28:54.438Z,13.4
2022-10-08T08:33:53.986Z,13.4
2022-10-08T08:38:53.718Z,13.8
2022-10-08T08:43:54.166Z,13.8
2022-10-08T08:48:53.811Z,14.2
2022-10-08T08:53:54.109Z,14.2
2022-10-08T08:58:54.343Z,14.4
2022-10-08T09:03:53.683Z,14.4
2022-10-08T09:08:54.316Z,14.4
2022-10-08T09:13:54.293Z,14.4
2022-10-08T09:18:53.757Z,14.3
2022-10-08T09:23:54.194Z,14.3
2022-10-08T09:28:53.601Z,14.8
2022-10-08T09:33:54.236Z,14.8
2022-10-08T09:38:53.791Z,14.8
2022-10-08T09:43:53.534Z,14.8
2022-10-08T09:48:54.226Z,14.7
2022-10-08T09:53:54.037Z,14.7
2022-10-08T09:58:54.380Z,14.8
2022-10-08T10:03:54.337Z,14.8
2022-10-08T10:08:54.108Z,15.2
2022-10-08T10:13:54.062Z,15.2
2022-10-08T10:18:54.383Z,15.2
2022-10-08T10:23:53.900Z,15.2
2022-10-08T10:28:54.286Z,15.4
2022-10-08T10:33:53.746Z,15.4
2022-10-08T10:38:54.256Z,15.2
2022-10-08T10:43:53.591Z,15.2
2022-10-08T10:48:54.049Z,14.9
2022-10-08T10:53:54.466Z,14.9
2022-10-08T10:58:53.876Z,14.8
2022-10-08T11:03:54.260Z,14.8
2022-10-08T11:08:53.877Z,14.9
2022-10-08T11:13:54.485Z,14.9
2022-10-08T11:18:53.859Z,14.5
2022-10-08T11:23:54.526Z,14.5
2022-10-08T11:28:54.000Z,11.7
2022-10-08T11:33:53.661Z,11.7
2022-10-08T11:38:54.152Z,11.1
2022-10-08T11:43:54.406Z,11.1
2022-10-08T11:48:53.908Z,11.2
2022-10-08T11:53:54.491Z,11.2
2022-10-08T11:58:53.874Z,12
2022-10-08T12:03:54.681Z,12
2022-10-08T12:08:54.077Z,12.6
2022-10-08T12:13:54.447Z,12.6
2022-10-08T12:18:53.833Z,13.1
2022-10-08T12:23:54.368Z,13.1
2022-10-08T12:28:53.723Z,13.6
2022-10-08T12:33:54.184Z,13.6
2022-10-08T12:38:53.780Z,13.4
2022-10-08T12:43:54.208Z,13.4
2022-10-08T12:48:53.792Z,13.5
2022-10-08T12:53:53.826Z,13.5
2022-10-08T12:58:54.308Z,13.9
2022-10-08T13:03:53.933Z,13.9
2022-10-08T13:08:53.629Z,14.3
2022-10-08T13:13:54.163Z,14.3
2022-10-08T13:18:54.590Z,14.2
2022-10-08T13:23:54.184Z,14.2
2022-10-08T13:29:01.986Z,14
2022-10-08T13:33:53.704Z,14
2022-10-08T13:38:54.269Z,13.7
2022-10-08T13:43:53.747Z,13.7
2022-10-08T13:48:54.250Z,12.9
2022-10-08T13:53:57.290Z,12.9
2022-10-08T13:58:53.936Z,12.7
2022-10-08T14:03:54.365Z,12.7
2022-10-08T14:08:53.873Z,13.1
2022-10-08T14:13:54.293Z,13.1
2022-10-08T14:18:59.462Z,13
2022-10-08T14:23:53.985Z,13
2022-10-08T14:28:54.379Z,12.7
2022-10-08T14:33:53.805Z,12.7
2022-10-08T14:38:54.776Z,12.7
2022-10-08T14:43:54.325Z,12.7
2022-10-08T14:48:54.106Z,13.1
2022-10-08T14:53:53.893Z,13.1
2022-10-08T14:58:54.563Z,13.3
2022-10-08T15:03:54.780Z,13.3
2022-10-08T15:08:53.793Z,13.8
2022-10-08T15:13:54.415Z,13.8
2022-10-08T15:18:54.947Z,14.1
2022-10-08T15:23:54.129Z,14.1
2022-10-08T15:28:54.307Z,14
2022-10-08T15:33:53.921Z,14
2022-10-08T15:38:54.089Z,13.8
2022-10-08T15:43:53.687Z,13.8
2022-10-08T15:48:54.377Z,12
2022-10-08T15:53:54.117Z,12
2022-10-08T15:58:54.460Z,11
2022-10-08T16:03:54.311Z,11
2022-10-08T16:08:53.770Z,10.8
2022-10-08T16:13:54.513Z,10.8
2022-10-08T16:18:54.008Z,10.6
2022-10-08T16:23:54.620Z,10.6
2022-10-08T16:28:54.249Z,10.5
2022-10-08T16:33:54.091Z,10.5
2022-10-08T16:38:53.976Z,10.6
2022-10-08T16:43:53.737Z,10.6
2022-10-08T16:48:54.245Z,10.4
2022-10-08T16:53:54.719Z,10.4
2022-10-08T16:58:54.273Z,10.3
2022-10-08T17:03:54.625Z,10.3
2022-10-08T17:08:54.072Z,10.3
2022-10-08T17:13:54.592Z,10.3
2022-10-08T17:18:54.024Z,10.3
2022-10-08T17:23:54.216Z,10.3
2022-10-08T17:28:54.728Z,10
2022-10-08T17:33:54.045Z,10
2022-10-08T17:38:54.340Z,9.7
2022-10-08T17:43:53.780Z,9.7
2022-10-08T17:48:54.138Z,9.5
2022-10-08T17:53:54.693Z,9.5
2022-10-08T17:58:54.220Z,9.2
2022-10-08T18:03:54.854Z,9.2
2022-10-08T18:08:54.298Z,9.5
2022-10-08T18:13:53.966Z,9.5
2022-10-08T18:18:54.538Z,9.5
2022-10-08T18:23:54.658Z,9.5
2022-10-08T18:28:54.111Z,9.3
2022-10-08T18:33:54.652Z,9.3
2022-10-08T18:38:54.864Z,9.1
2022-10-08T18:43:54.337Z,9.1
2022-10-08T18:48:54.740Z,8.9
2022-10-08T18:53:54.192Z,8.9
2022-10-08T18:58:54.680Z,9
2022-10-08T19:03:54.177Z,9
2022-10-08T19:08:54.789Z,9.2
2022-10-08T19:13:54.338Z,9.2
2022-10-08T19:18:54.695Z,9.4
2022-10-08T19:23:54.172Z,9.4
2022-10-08T19:28:54.565Z,9.6
2022-10-08T19:33:54.001Z,9.6
2022-10-08T19:38:54.530Z,9.5
2022-10-08T19:43:54.958Z,9.5
2022-10-08T19:48:54.283Z,9.2
2022-10-08T19:53:54.812Z,9.2
2022-10-08T19:58:54.188Z,9
2022-10-08T20:03:54.540Z,9
2022-10-08T20:08:54.326Z,8.6
2022-10-08T20:13:54.754Z,8.6
2022-10-08T20:18:54.264Z,8.3
2022-10-08T20:23:54.731Z,8.3
2022-10-08T20:28:53.963Z,8.4
2022-10-08T20:33:54.238Z,8.4
2022-10-08T20:38:54.621Z,8.3
2022-10-08T20:43:54.096Z,8.3
2022-10-08T20:48:54.702Z,8.3
2022-10-08T20:53:54.624Z,8.3
2022-10-08T20:58:54.430Z,8.3
2022-10-08T21:03:54.641Z,8.3
2022-10-08T21:08:54.309Z,8.3
2022-10-08T21:13:54.183Z,8.3
2022-10-08T21:18:54.497Z,8.4
2022-10-08T21:23:54.202Z,8.4
2022-10-08T21:28:54.563Z,8.4
2022-10-08T21:33:55.141Z,8.4
2022-10-08T21:38:54.106Z,8.5
2022-10-08T21:43:54.836Z,8.5
2022-10-08T21:48:54.279Z,8.3
2022-10-08T21:53:54.901Z,8.3
2022-10-08T21:58:54.409Z,8.2
2022-10-08T22:03:54.414Z,8.2
2022-10-08T22:08:54.221Z,8
2022-10-08T22:13:54.304Z,8
2022-10-08T22:18:54.434Z,8
2022-10-08T22:23:55.003Z,8
2022-10-08T22:28:54.090Z,8.1
2022-10-08T22:33:54.138Z,8.1
2022-10-08T22:38:54.853Z,8
2022-10-08T22:43:53.933Z,8
2022-10-08T22:48:54.581Z,8
2022-10-08T22:53:54.775Z,8
2022-10-08T22:58:54.883Z,7.8
2022-10-08T23:03:54.224Z,7.8
2022-10-08T23:08:54.485Z,7.7
2022-10-08T23:13:54.737Z,7.7
2022-10-08T23:18:54.867Z,7.7
2022-10-08T23:23:54.162Z,7.7
2022-10-08T23:28:54.352Z,7.7
2022-10-08T23:33:54.444Z,7.7
2022-10-08T23:38:54.147Z,7.7
2022-10-08T23:43:54.365Z,7.7
2022-10-08T23:48:54.538Z,7.7
2022-10-08T23:53:54.758Z,7.7
2022-10-08T23:58:54.172Z,7.5
